Time;durP1;ratioP1;P1;durP2;ratioP2;P2;SDS_P1;SDS_P2;PMS_P1;PMS_P2;Temp;Humidity;BMP_temperature;BMP_pressure;BME280_temperature;BME280_humidity;BME280_pressure;Samples;Min_cycle;Max_cycle;Signal;HPM_P1;HPM_P2
2023/02/15 00:02:56;;;;;;;;;27.00;26.00;;;;;10.31;48.04;100460.97;7749802;22;97683;-65
2023/02/15 00:05:59;;;;;;;;;29.75;26.75;;;;;10.33;48.15;100447.31;7751238;22;96401;-65
2023/02/15 00:09:04;;;;;;;;;29.00;27.00;;;;;10.31;48.33;100452.06;7723438;22;96689;-65
2023/02/15 00:12:07;;;;;;;;;31.50;26.50;;;;;10.33;48.05;100452.69;7748993;22;96236;-65
2023/02/15 00:15:12;;;;;;;;;28.00;23.60;;;;;10.10;48.21;100427.59;7755200;22;96295;-65
2023/02/15 00:18:16;;;;;;;;;27.75;25.00;;;;;10.20;47.93;100455.19;7757092;22;96931;-65
2023/02/15 00:21:19;;;;;;;;;30.00;28.00;;;;;10.18;48.19;100457.22;7758042;22;96311;-65
2023/02/15 00:24:23;;;;;;;;;30.40;29.40;;;;;10.21;48.27;100448.78;7731306;22;96752;-65
2023/02/15 00:27:26;;;;;;;;;37.50;31.50;;;;;10.20;48.24;100434.47;7759787;22;96297;-65
2023/02/15 00:30:31;;;;;;;;;31.50;28.50;;;;;10.12;48.19;100423.69;7756925;22;96277;-65
2023/02/15 00:33:37;;;;;;;;;37.25;32.75;;;;;10.21;48.70;100446.09;7758701;22;96281;-66
2023/02/15 00:36:40;;;;;;;;;35.00;31.00;;;;;10.24;48.29;100443.84;7758113;22;96853;-65
2023/02/15 00:39:43;;;;;;;;;33.40;29.00;;;;;10.24;48.64;100437.63;7752588;22;96275;-65
2023/02/15 00:42:47;;;;;;;;;29.50;29.00;;;;;10.25;48.51;100434.75;7725311;22;96166;-65
2023/02/15 00:45:52;;;;;;;;;28.75;26.00;;;;;10.24;48.27;100432.22;7752761;22;96870;-65
2023/02/15 00:48:55;;;;;;;;;34.40;31.00;;;;;10.25;48.44;100431.22;7725906;22;97619;-66
2023/02/15 00:51:59;;;;;;;;;30.00;27.50;;;;;10.28;48.28;100428.16;7723731;22;96655;-65
2023/02/15 00:55:02;;;;;;;;;32.50;28.75;;;;;10.28;48.29;100423.59;7725095;22;96243;-65
2023/02/15 00:58:06;;;;;;;;;31.80;29.60;;;;;10.30;48.24;100426.13;7725291;22;96450;-65
2023/02/15 01:01:12;;;;;;;;;29.00;27.00;;;;;10.33;48.40;100417.66;7753395;22;96931;-65
2023/02/15 01:04:16;;;;;;;;;35.50;30.50;;;;;10.30;48.44;100416.19;7726469;22;96700;-65
2023/02/15 01:07:19;;;;;;;;;28.60;25.60;;;;;10.30;48.35;100408.09;7728167;22;97041;-65
2023/02/15 01:10:23;;;;;;;;;34.40;30.40;;;;;10.28;48.14;100404.72;7751626;22;96327;-65
2023/02/15 01:13:27;;;;;;;;;31.25;29.00;;;;;10.27;48.07;100399.50;7752293;22;96239;-65
2023/02/15 01:16:32;;;;;;;;;37.40;32.00;;;;;10.20;48.25;100398.59;7724315;22;96486;-66
2023/02/15 01:19:35;;;;;;;;;27.20;25.00;;;;;10.08;48.41;100397.28;7726670;22;96616;-65
2023/02/15 01:22:38;;;;;;;;;38.50;31.00;;;;;10.06;48.47;100393.97;7755996;22;96166;-65
2023/02/15 01:25:42;;;;;;;;;30.60;28.60;;;;;10.04;48.84;100401.38;7755527;22;96272;-65
2023/02/15 01:28:46;;;;;;;;;30.60;30.00;;;;;10.04;48.98;100396.00;7727816;22;96312;-65
2023/02/15 01:31:53;;;;;;;;;32.00;28.60;;;;;10.05;48.92;100403.06;7728352;22;96387;-65
2023/02/15 01:34:56;;;;;;;;;34.00;30.00;;;;;9.99;48.56;100393.84;7728660;22;96337;-65
2023/02/15 01:38:00;;;;;;;;;35.00;30.00;;;;;10.02;48.50;100389.97;7727032;22;96329;-65
2023/02/15 01:41:23;;;;;;;;;32.40;30.00;;;;;10.00;48.62;100385.59;7753125;22;96282;-65
2023/02/15 01:44:57;;;;;;;;;35.50;30.00;;;;;10.03;48.82;100387.06;7754350;22;96249;-65
2023/02/15 01:48:06;;;;;;;;;32.00;29.00;;;;;10.04;48.71;100390.59;7595372;23;96250;-65
2023/02/15 01:51:10;;;;;;;;;35.00;31.00;;;;;10.06;48.57;100381.34;7597023;23;96855;-65
2023/02/15 01:54:24;;;;;;;;;35.00;30.40;;;;;10.08;48.59;100378.44;7596216;23;96469;-65
2023/02/15 01:57:29;;;;;;;;;31.50;29.00;;;;;10.09;48.56;100378.25;7573795;23;97232;-65
2023/02/15 02:00:33;;;;;;;;;31.33;29.33;;;;;10.03;48.69;100370.91;7575178;23;96428;-65
2023/02/15 02:03:46;;;;;;;;;27.40;25.00;;;;;9.93;48.73;100368.47;7574592;23;96508;-65
2023/02/15 02:06:52;;;;;;;;;28.60;27.00;;;;;9.92;48.86;100368.66;7576068;23;97010;-65
2023/02/15 02:09:56;;;;;;;;;30.25;27.25;;;;;9.89;49.07;100363.63;7575341;23;96492;-65
2023/02/15 02:13:05;;;;;;;;;30.50;28.00;;;;;9.83;49.10;100348.16;7597297;23;96212;-65
2023/02/15 02:16:15;;;;;;;;;34.00;30.25;;;;;9.87;49.17;100354.91;7596190;23;96269;-65
2023/02/15 02:20:01;;;;;;;;;29.75;27.75;;;;;9.87;49.05;100355.69;7574050;23;96689;-65
2023/02/15 02:23:30;;;;;;;;;28.80;26.00;;;;;9.88;48.74;100352.00;7707526;22;96535;-65
2023/02/15 02:27:05;;;;;;;;;33.00;29.00;;;;;9.81;48.96;100347.53;7756117;22;96247;-65
2023/02/15 02:30:36;;;;;;;;;29.20;27.20;;;;;9.78;49.25;100342.50;7753075;22;96403;-65
2023/02/15 02:33:55;;;;;;;;;27.60;24.40;;;;;9.69;49.17;100343.56;7753335;22;96724;-65
2023/02/15 02:37:04;;;;;;;;;26.33;25.00;;;;;9.70;49.22;100345.25;7753300;22;96222;-65
2023/02/15 02:40:17;;;;;;;;;33.00;28.00;;;;;9.74;49.39;100352.78;7753216;22;96244;-65
2023/02/15 02:43:31;;;;;;;;;29.00;27.00;;;;;9.74;49.31;100347.41;7752525;22;96175;-65
2023/02/15 02:46:40;;;;;;;;;29.75;26.25;;;;;9.68;49.52;100340.03;7723856;22;96228;-65
2023/02/15 02:49:45;;;;;;;;;32.40;27.00;;;;;9.60;49.50;100329.34;7749535;22;96394;-65
2023/02/15 02:52:50;;;;;;;;;30.40;28.80;;;;;9.65;49.54;100339.56;7722212;22;96263;-65
2023/02/15 02:55:57;;;;;;;;;30.00;27.00;;;;;9.69;49.59;100332.81;7719655;22;96600;-65
2023/02/15 02:59:07;;;;;;;;;30.00;27.25;;;;;9.73;49.36;100345.72;7724515;22;96244;-66
2023/02/15 03:02:17;;;;;;;;;29.00;27.40;;;;;9.77;49.43;100335.44;7753647;22;96202;-65
2023/02/15 03:05:27;;;;;;;;;31.40;29.00;;;;;9.67;49.56;100334.88;7756263;22;96299;-65
2023/02/15 03:08:36;;;;;;;;;30.80;27.20;;;;;9.50;49.59;100331.44;7701853;22;96773;-65
2023/02/15 03:11:39;;;;;;;;;31.60;28.80;;;;;9.61;49.48;100331.03;7751967;22;96939;-65
2023/02/15 03:14:46;;;;;;;;;32.50;29.00;;;;;9.62;49.42;100321.09;7723273;22;96614;-65
2023/02/15 03:17:56;;;;;;;;;28.00;26.00;;;;;9.57;49.73;100327.88;7749589;22;96367;-65
2023/02/15 03:21:04;;;;;;;;;32.00;26.75;;;;;9.63;49.70;100326.28;7751593;22;96066;-65
2023/02/15 03:24:12;;;;;;;;;29.60;29.00;;;;;9.53;49.96;100323.00;7751307;22;96846;-65
2023/02/15 03:27:23;;;;;;;;;32.40;30.00;;;;;9.26;50.52;100326.22;7723718;22;96421;-65
2023/02/15 03:30:30;;;;;;;;;28.60;26.40;;;;;9.25;50.45;100324.53;7751883;22;96630;-66
2023/02/15 03:33:40;;;;;;;;;32.25;30.00;;;;;9.21;50.74;100312.47;7724793;22;96294;-65
2023/02/15 03:36:53;;;;;;;;;34.00;30.00;;;;;9.10;51.19;100317.25;7751570;22;96287;-65
2023/02/15 03:41:09;;;;;;;;;35.60;31.00;;;;;8.99;51.51;100311.44;7750936;22;96126;-65
2023/02/15 03:43:33;;;;;;;;;36.75;30.25;;;;;8.67;52.32;100305.19;7748497;22;96197;-65
2023/02/15 03:46:44;;;;;;;;;35.00;30.80;;;;;8.86;51.83;100305.78;7750485;22;97042;-65
2023/02/15 03:49:54;;;;;;;;;35.40;30.00;;;;;8.87;51.65;100304.78;7750756;22;96291;-65
2023/02/15 03:53:01;;;;;;;;;34.00;29.00;;;;;8.97;51.42;100306.22;7723062;22;96334;-65
2023/02/15 03:56:04;;;;;;;;;31.50;30.00;;;;;8.72;51.99;100304.69;7750737;22;96280;-65
2023/02/15 04:02:37;;;;;;;;;28.20;27.00;;;;;8.64;52.58;100310.94;7751923;22;96254;-65
2023/02/15 04:05:40;;;;;;;;;35.50;29.75;;;;;8.76;52.08;100311.38;7725479;22;96922;-66
2023/02/15 04:12:06;;;;;;;;;29.80;29.00;;;;;8.47;52.76;100314.69;7754191;22;96323;-65
2023/02/15 04:25:19;;;;;;;;;31.40;29.40;;;;;8.53;52.88;100303.25;7752662;22;96239;-65
2023/02/15 04:28:23;;;;;;;;;31.40;27.00;;;;;8.40;53.44;100302.13;7724943;22;96283;-65
2023/02/15 04:31:26;;;;;;;;;29.00;27.00;;;;;8.26;53.55;100304.47;7752061;22;96187;-65
2023/02/15 04:34:30;;;;;;;;;28.00;26.00;;;;;8.37;53.09;100303.31;7751179;22;96225;-65
2023/02/15 04:37:33;;;;;;;;;24.20;22.00;;;;;8.45;53.31;100299.75;7751207;22;96162;-65
2023/02/15 04:40:38;;;;;;;;;38.40;32.40;;;;;8.58;52.86;100297.34;7749130;22;96249;-65
2023/02/15 04:43:41;;;;;;;;;31.50;28.25;;;;;8.67;52.69;100297.13;7719508;22;96841;-65
2023/02/15 04:46:44;;;;;;;;;31.60;29.40;;;;;8.70;52.79;100294.09;7746718;22;96475;-65
2023/02/15 04:49:48;;;;;;;;;35.60;30.00;;;;;8.78;52.29;100301.28;7747512;22;96278;-65
2023/02/15 04:52:51;;;;;;;;;30.60;27.00;;;;;8.77;52.20;100306.84;7747046;22;96258;-65
2023/02/15 04:55:56;;;;;;;;;31.60;28.00;;;;;8.45;52.92;100297.06;7748265;22;96251;-65
2023/02/15 04:58:59;;;;;;;;;29.20;27.80;;;;;8.65;52.67;100306.38;7748996;22;96668;-65
2023/02/15 05:02:03;;;;;;;;;34.20;30.60;;;;;8.79;52.60;100307.50;7750224;22;96145;-65
2023/02/15 05:05:07;;;;;;;;;31.50;27.50;;;;;8.82;52.30;100312.53;7723170;22;96624;-65
2023/02/15 05:08:10;;;;;;;;;31.00;28.00;;;;;8.75;52.32;100307.00;7747210;22;96266;-65
2023/02/15 05:11:15;;;;;;;;;28.00;26.20;;;;;8.75;52.38;100308.88;7720717;22;98171;-65
2023/02/15 05:14:18;;;;;;;;;27.80;26.80;;;;;8.62;52.28;100286.06;7747417;22;96308;-65
2023/02/15 05:17:22;;;;;;;;;30.80;27.00;;;;;8.79;52.37;100305.66;7748376;22;96405;-65
2023/02/15 05:20:25;;;;;;;;;27.80;26.20;;;;;8.65;52.59;100309.06;7749602;22;96296;-65
2023/02/15 05:23:28;;;;;;;;;31.00;29.00;;;;;8.52;52.96;100309.63;7747889;22;95888;-66
2023/02/15 05:29:54;;;;;;;;;31.50;28.50;;;;;8.26;53.68;100303.63;7748654;22;96237;-65
2023/02/15 05:32:57;;;;;;;;;32.00;30.00;;;;;8.33;53.71;100303.81;7722193;22;96416;-65
2023/02/15 05:36:01;;;;;;;;;28.60;27.00;;;;;8.38;53.57;100306.81;7747693;22;96133;-65
2023/02/15 05:39:05;;;;;;;;;29.80;25.40;;;;;8.38;53.64;100310.34;7717472;22;96294;-65
2023/02/15 05:42:10;;;;;;;;;29.60;27.00;;;;;8.34;53.73;100313.56;7743592;22;96321;-65
2023/02/15 05:45:13;;;;;;;;;30.50;27.75;;;;;8.30;53.79;100315.75;7743482;22;96245;-65
2023/02/15 05:48:18;;;;;;;;;29.80;29.00;;;;;7.90;54.83;100321.19;7741687;22;96867;-65
2023/02/15 05:51:21;;;;;;;;;26.50;24.50;;;;;7.71;55.81;100317.84;7715367;22;96260;-65
2023/02/15 05:54:24;;;;;;;;;26.80;26.00;;;;;7.69;55.72;100314.47;7743165;22;96947;-65
2023/02/15 05:57:29;;;;;;;;;28.00;25.50;;;;;7.77;55.52;100325.19;7744173;22;96149;-65
2023/02/15 06:00:33;;;;;;;;;29.20;28.00;;;;;7.96;55.01;100318.66;7744040;22;97444;-65
2023/02/15 06:03:40;;;;;;;;;29.40;26.60;;;;;7.81;55.40;100318.50;7741581;22;96260;-65
2023/02/15 06:06:43;;;;;;;;;27.80;25.80;;;;;7.80;55.51;100314.16;7745055;22;96177;-66
2023/02/15 06:09:46;;;;;;;;;33.60;29.80;;;;;7.75;55.85;100324.56;7743755;22;96231;-65
2023/02/15 06:12:51;;;;;;;;;32.00;29.67;;;;;7.82;55.68;100324.69;7745263;22;96367;-67
2023/02/15 06:15:54;;;;;;;;;30.00;27.00;;;;;7.79;55.90;100320.50;7745182;22;96212;-66
2023/02/15 06:18:58;;;;;;;;;30.80;27.40;;;;;7.67;56.32;100321.03;7746315;22;96273;-66
2023/02/15 06:22:02;;;;;;;;;27.50;24.50;;;;;7.51;56.85;100299.56;7717182;22;96578;-65
2023/02/15 06:25:09;;;;;;;;;28.25;26.25;;;;;7.33;57.56;100315.81;7746021;22;96901;-65
2023/02/15 06:28:14;;;;;;;;;30.80;28.80;;;;;7.67;56.82;100313.78;7720184;22;96237;-65
2023/02/15 06:31:18;;;;;;;;;33.40;28.40;;;;;7.93;56.03;100316.28;7719763;22;96624;-65
2023/02/15 06:34:21;;;;;;;;;29.40;27.40;;;;;8.11;55.44;100308.88;7718483;22;96344;-65
2023/02/15 06:37:24;;;;;;;;;35.60;31.20;;;;;8.12;55.32;100313.25;7718865;22;99042;-65
2023/02/15 06:40:28;;;;;;;;;34.00;30.40;;;;;8.28;55.07;100315.91;7745201;22;96269;-65
2023/02/15 06:43:33;;;;;;;;;29.00;27.40;;;;;8.35;54.71;100313.41;7744906;22;96257;-65
2023/02/15 06:46:37;;;;;;;;;31.60;29.60;;;;;8.36;54.54;100314.22;7744063;22;96304;-65
2023/02/15 06:49:40;;;;;;;;;33.00;29.40;;;;;8.45;54.42;100316.72;7745585;22;96798;-65
2023/02/15 06:52:44;;;;;;;;;33.60;30.00;;;;;8.50;54.29;100308.94;7717922;22;96301;-65
2023/02/15 06:55:47;;;;;;;;;33.00;30.00;;;;;8.61;53.90;100310.44;7744953;22;96840;-65
2023/02/15 06:58:52;;;;;;;;;32.50;30.00;;;;;8.52;53.92;100315.00;7747479;22;96279;-65
2023/02/15 07:01:55;;;;;;;;;31.60;28.60;;;;;8.48;54.31;100315.53;7746876;22;96313;-65
2023/02/15 07:04:59;;;;;;;;;32.80;29.40;;;;;8.72;53.83;100310.06;7746565;22;96270;-65
2023/02/15 07:08:03;;;;;;;;;26.80;24.40;;;;;8.80;53.25;100314.53;7717167;22;96586;-65
2023/02/15 07:14:29;;;;;;;;;36.25;32.00;;;;;8.89;53.13;100305.44;7693201;22;97140;-65
2023/02/15 07:17:33;;;;;;;;;40.00;32.00;;;;;8.95;53.15;100316.31;7746813;22;96227;-67
2023/02/15 07:20:41;;;;;;;;;32.00;30.00;;;;;8.99;52.92;100312.25;7745951;22;96357;-65
2023/02/15 07:23:44;;;;;;;;;32.20;30.00;;;;;9.05;52.70;100306.16;7747379;22;96349;-65
2023/02/15 07:26:47;;;;;;;;;26.75;25.75;;;;;9.00;52.35;100311.25;7747751;22;96271;-66
2023/02/15 07:29:52;;;;;;;;;28.00;26.00;;;;;9.07;52.03;100308.69;7746208;22;96229;-65
2023/02/15 07:36:17;;;;;;;;;29.00;27.00;;;;;8.70;52.66;100299.47;7746231;22;96461;-65
2023/02/15 07:39:21;;;;;;;;;25.40;23.00;;;;;8.96;52.68;100303.72;7745800;22;96277;-65
2023/02/15 07:42:24;;;;;;;;;23.00;21.25;;;;;9.13;51.59;100303.44;7746791;22;96059;-65
2023/02/15 07:45:28;;;;;;;;;27.00;25.00;;;;;9.96;50.17;100289.13;7746747;22;96229;-65
2023/02/15 07:48:33;;;;;;;;;26.50;23.50;;;;;12.17;45.86;100292.09;7747290;22;96274;-65
2023/02/15 07:51:36;;;;;;;;;24.00;21.00;;;;;13.81;40.92;100293.50;7722904;22;97229;-65
2023/02/15 07:54:40;;;;;;;;;22.00;20.00;;;;;13.87;39.93;100292.69;7749763;22;96289;-65
2023/02/15 07:57:44;;;;;;;;;19.60;18.60;;;;;14.61;38.49;100294.25;7722346;22;96349;-65
2023/02/15 08:01:00;;;;;;;;;27.50;24.00;;;;;16.37;34.59;100287.88;7746612;22;96941;-65
2023/02/15 08:04:05;;;;;;;;;26.60;23.40;;;;;17.38;33.51;100289.97;7742195;22;96226;-66
2023/02/15 08:07:08;;;;;;;;;23.40;22.00;;;;;17.57;32.17;100288.84;7743174;22;96204;-65
2023/02/15 08:11:25;;;;;;;;;26.40;22.40;;;;;18.01;32.32;100285.66;7741720;22;96290;-65
2023/02/15 08:13:53;;;;;;;;;23.00;20.00;;;;;18.26;30.26;100274.50;7742679;22;96144;-65
2023/02/15 08:17:02;;;;;;;;;24.25;22.25;;;;;19.62;29.90;100278.41;7747566;22;96335;-66
2023/02/15 08:20:06;;;;;;;;;24.25;22.00;;;;;20.61;28.72;100257.50;7719991;22;96534;-67
2023/02/15 08:23:10;;;;;;;;;24.75;22.75;;;;;22.98;26.00;100272.50;7746859;22;96799;-66
2023/02/15 08:26:14;;;;;;;;;26.75;23.75;;;;;24.35;23.96;100268.00;7745465;22;96258;-66
2023/02/15 08:29:19;;;;;;;;;23.40;22.00;;;;;26.04;21.82;100267.69;7742158;22;96382;-66
2023/02/15 08:32:24;;;;;;;;;21.60;19.60;;;;;26.92;20.66;100253.50;7739681;22;96951;-66
2023/02/15 08:35:27;;;;;;;;;22.00;20.00;;;;;26.87;20.12;100256.31;7743426;22;96308;-67
2023/02/15 08:38:31;;;;;;;;;21.00;20.40;;;;;25.88;21.49;100252.34;7740762;22;96193;-66
2023/02/15 08:41:37;;;;;;;;;24.00;23.40;;;;;27.21;20.51;100245.06;7743532;22;96355;-68
2023/02/15 08:44:41;;;;;;;;;25.00;22.60;;;;;28.65;18.32;100252.31;7746015;22;96191;-66
2023/02/15 08:47:45;;;;;;;;;23.50;23.00;;;;;29.25;17.65;100241.91;7747194;22;97536;-66
2023/02/15 08:50:48;;;;;;;;;22.00;20.20;;;;;30.42;17.19;100237.03;7746348;22;96290;-66
2023/02/15 08:53:54;;;;;;;;;24.00;22.00;;;;;31.62;16.69;100244.09;7741088;22;96145;-67
2023/02/15 08:56:57;;;;;;;;;21.00;20.00;;;;;32.25;15.73;100241.34;7746718;22;96209;-67
2023/02/15 09:00:01;;;;;;;;;23.40;21.00;;;;;32.49;14.64;100242.75;7717591;22;97166;-67
2023/02/15 09:03:07;;;;;;;;;22.00;19.60;;;;;32.62;15.07;100230.53;7742690;22;96516;-67
2023/02/15 09:06:10;;;;;;;;;19.20;19.00;;;;;33.35;14.31;100234.72;7739136;22;96315;-67
2023/02/15 09:09:14;;;;;;;;;23.40;21.00;;;;;33.58;14.15;100232.38;7712219;22;97243;-67
2023/02/15 09:12:17;;;;;;;;;22.40;20.40;;;;;34.05;14.33;100223.75;7739974;22;96981;-67
2023/02/15 09:15:21;;;;;;;;;18.80;18.00;;;;;33.97;14.06;100219.84;7737853;22;96617;-67
2023/02/15 09:18:26;;;;;;;;;22.60;20.00;;;;;33.39;14.39;100207.72;7739892;22;96423;-67
2023/02/15 09:21:29;;;;;;;;;22.20;21.00;;;;;34.15;14.13;100207.34;7739563;22;96240;-68
2023/02/15 09:24:33;;;;;;;;;20.60;20.00;;;;;34.65;13.45;100204.22;7738865;22;96343;-67
2023/02/15 09:27:38;;;;;;;;;21.60;19.60;;;;;35.14;13.15;100210.63;7738320;22;96404;-67
2023/02/15 09:30:42;;;;;;;;;22.00;21.00;;;;;34.99;12.76;100202.16;7740991;22;96293;-67
2023/02/15 09:33:48;;;;;;;;;23.20;21.20;;;;;34.94;12.52;100202.38;7739770;22;96475;-68
2023/02/15 09:36:52;;;;;;;;;21.00;20.00;;;;;35.23;13.26;100201.31;7739184;22;96329;-68
2023/02/15 09:39:56;;;;;;;;;21.75;20.25;;;;;35.38;12.52;100201.38;7737836;22;96271;-68
2023/02/15 09:43:19;;;;;;;;;20.00;19.20;;;;;35.38;12.62;100194.94;7738143;22;96911;-68
2023/02/15 09:46:50;;;;;;;;;24.00;22.67;;;;;35.67;12.46;100200.22;7737476;22;97051;-68
2023/02/15 09:50:05;;;;;;;;;24.50;21.50;;;;;35.88;12.28;100185.97;7736482;22;96293;-68
2023/02/15 09:53:25;;;;;;;;;23.00;22.40;;;;;36.14;12.02;100191.09;7736889;22;96286;-68
2023/02/15 09:56:37;;;;;;;;;25.40;24.00;;;;;36.32;12.31;100186.75;7736068;22;96414;-68
2023/02/15 09:59:51;;;;;;;;;24.00;23.00;;;;;36.29;12.27;100173.44;7737080;22;96294;-68
2023/02/15 10:03:18;;;;;;;;;23.00;22.00;;;;;35.79;11.68;100162.84;7738048;22;96299;-70
2023/02/15 10:06:33;;;;;;;;;24.60;22.60;;;;;35.14;12.65;100160.16;7738521;22;97258;-69
2023/02/15 10:09:54;;;;;;;;;25.60;23.80;;;;;35.31;12.59;100159.09;7738228;22;96970;-69
2023/02/15 10:13:25;;;;;;;;;24.00;24.00;;;;;35.48;12.56;100164.38;7738619;22;96439;-68
2023/02/15 10:16:39;;;;;;;;;26.60;25.00;;;;;35.34;12.95;100154.75;7737686;22;96809;-68
2023/02/15 10:19:57;;;;;;;;;24.20;23.00;;;;;35.38;12.55;100156.50;7738133;22;96869;-68
2023/02/15 10:23:18;;;;;;;;;29.00;26.80;;;;;35.66;12.95;100147.28;7737595;22;96216;-69
2023/02/15 10:26:23;;;;;;;;;29.60;28.00;;;;;35.45;12.70;100141.84;7736023;22;96400;-69
2023/02/15 10:29:34;;;;;;;;;29.00;28.00;;;;;35.51;12.87;100138.44;7737383;22;96810;-69
2023/02/15 10:32:47;;;;;;;;;26.00;25.00;;;;;35.50;12.34;100138.78;7736945;22;96559;-69
2023/02/15 10:36:03;;;;;;;;;26.40;26.40;;;;;35.31;12.64;100133.84;7736230;22;96864;-69
2023/02/15 10:39:18;;;;;;;;;26.00;24.00;;;;;35.37;12.92;100126.00;7737146;22;96291;-69
2023/02/15 10:42:31;;;;;;;;;32.60;29.60;;;;;35.53;12.49;100129.66;7736876;22;96319;-69
2023/02/15 10:45:47;;;;;;;;;29.50;26.50;;;;;35.06;12.86;100107.03;7709561;22;96724;-69
2023/02/15 10:49:17;;;;;;;;;29.40;26.40;;;;;35.32;12.73;100121.47;7736635;22;96300;-69
2023/02/15 10:52:35;;;;;;;;;31.60;29.60;;;;;35.09;13.10;100129.56;7734128;22;96329;-68
2023/02/15 10:55:52;;;;;;;;;29.00;26.60;;;;;35.01;12.69;100118.50;7683196;22;97820;-69
2023/02/15 10:59:23;;;;;;;;;29.00;28.00;;;;;34.87;13.18;100115.28;7709710;22;96308;-69
2023/02/15 11:02:36;;;;;;;;;29.75;28.25;;;;;34.40;12.76;100107.41;7735993;22;97441;-69
2023/02/15 11:05:48;;;;;;;;;29.00;28.00;;;;;34.42;13.51;100101.44;7736593;22;96492;-68
2023/02/15 11:08:56;;;;;;;;;28.00;26.60;;;;;34.09;13.09;100099.56;7737003;22;96235;-68
2023/02/15 11:12:01;;;;;;;;;30.60;28.40;;;;;33.18;13.82;100081.16;7735537;22;96518;-68
2023/02/15 11:15:16;;;;;;;;;28.60;25.60;;;;;33.16;13.75;100079.84;7735672;22;96931;-68
2023/02/15 11:18:29;;;;;;;;;27.75;26.00;;;;;33.60;13.76;100078.25;7708334;22;96598;-69
2023/02/15 11:21:38;;;;;;;;;30.40;28.00;;;;;33.73;13.38;100083.53;7736237;22;96343;-69
2023/02/15 11:24:44;;;;;;;;;30.00;28.00;;;;;33.63;13.75;100077.53;7736345;22;96910;-69
2023/02/15 11:27:50;;;;;;;;;33.50;28.00;;;;;33.44;13.74;100070.50;7735938;22;96210;-69
2023/02/15 11:30:56;;;;;;;;;30.75;28.75;;;;;33.01;13.54;100067.31;7709297;22;96225;-69
2023/02/15 11:34:11;;;;;;;;;28.50;26.00;;;;;33.10;13.77;100071.66;7735976;22;96329;-69
2023/02/15 11:37:20;;;;;;;;;29.00;28.00;;;;;32.93;13.98;100059.81;7735524;22;96408;-69
2023/02/15 11:40:27;;;;;;;;;30.80;28.00;;;;;33.04;14.48;100052.63;7736162;22;96336;-69
2023/02/15 11:43:39;;;;;;;;;32.00;26.00;;;;;33.27;14.09;100044.72;7735952;22;96355;-69
2023/02/15 11:46:42;;;;;;;;;27.40;25.40;;;;;33.38;13.83;100048.72;7734959;22;96763;-69
2023/02/15 11:49:46;;;;;;;;;31.00;29.00;;;;;32.88;14.06;100035.72;7735647;22;96823;-69
2023/02/15 11:52:50;;;;;;;;;32.00;29.00;;;;;32.81;14.17;100037.41;7735590;22;97412;-69
2023/02/15 11:55:54;;;;;;;;;29.75;27.00;;;;;32.96;14.27;100028.41;7735855;22;96896;-69
2023/02/15 11:59:04;;;;;;;;;29.00;27.60;;;;;32.88;14.32;100035.72;7733341;22;96396;-69
2023/02/15 12:02:17;;;;;;;;;32.00;29.00;;;;;32.88;14.31;100018.13;7732438;22;96274;-69
2023/02/15 12:05:24;;;;;;;;;28.80;27.00;;;;;33.07;13.98;100019.25;7732331;22;96889;-69
2023/02/15 12:08:38;;;;;;;;;29.00;26.75;;;;;33.01;13.83;100022.59;7734593;22;96286;-69
2023/02/15 12:11:42;;;;;;;;;32.00;26.40;;;;;32.53;14.28;100012.81;7734765;22;96387;-69
2023/02/15 12:14:50;;;;;;;;;28.60;26.00;;;;;32.31;14.36;100010.34;7733745;22;96560;-69
2023/02/15 12:17:55;;;;;;;;;32.20;30.00;;;;;32.28;14.75;100002.66;7734647;22;96917;-69
2023/02/15 12:21:00;;;;;;;;;29.00;27.00;;;;;32.33;14.46;99998.84;7734822;22;96747;-69
2023/02/15 12:24:14;;;;;;;;;31.00;28.25;;;;;32.45;14.89;99993.34;7735178;22;96276;-69
2023/02/15 12:27:21;;;;;;;;;32.20;29.80;;;;;32.16;14.99;99986.63;7735577;22;96428;-69
2023/02/15 12:30:33;;;;;;;;;33.00;29.00;;;;;32.01;14.60;99992.78;7735689;22;96401;-69
2023/02/15 12:33:45;;;;;;;;;35.40;30.00;;;;;31.02;15.35;99982.19;7710351;22;96450;-69
2023/02/15 12:36:54;;;;;;;;;32.60;28.80;;;;;30.86;15.69;99984.63;7736986;22;96023;-68
2023/02/15 12:39:59;;;;;;;;;32.60;29.00;;;;;30.62;15.87;99974.00;7737561;22;96308;-69
2023/02/15 12:43:25;;;;;;;;;33.75;30.00;;;;;30.54;16.60;99980.41;7709460;22;97188;-69
2023/02/15 12:46:29;;;;;;;;;35.40;30.40;;;;;30.02;16.71;99971.13;7736947;22;96214;-69
2023/02/15 12:49:40;;;;;;;;;29.00;26.00;;;;;29.36;17.52;99964.69;7736918;22;96321;-69
2023/02/15 12:52:52;;;;;;;;;31.00;28.40;;;;;28.84;17.47;99967.13;7736248;22;96359;-69
2023/02/15 12:55:57;;;;;;;;;32.00;28.00;;;;;28.01;18.14;99967.66;7737084;22;96913;-68
2023/02/15 12:59:06;;;;;;;;;33.60;29.00;;;;;27.37;18.83;99963.16;7709772;22;96927;-69
2023/02/15 13:02:21;;;;;;;;;36.00;29.00;;;;;26.72;19.30;99961.25;7737873;22;97448;-68
2023/02/15 13:05:30;;;;;;;;;33.00;28.80;;;;;26.10;19.62;99959.69;7737852;22;96341;-68
2023/02/15 13:08:36;;;;;;;;;33.00;29.00;;;;;25.62;20.84;99958.13;7709850;22;96754;-68
2023/02/15 13:11:42;;;;;;;;;35.00;30.00;;;;;25.36;21.25;99949.31;7738182;22;96295;-68
2023/02/15 13:14:47;;;;;;;;;35.40;31.00;;;;;25.30;21.37;99948.53;7737879;22;96217;-68
2023/02/15 13:17:52;;;;;;;;;32.40;28.00;;;;;24.96;21.40;99940.31;7739638;22;97160;-68
2023/02/15 13:20:57;;;;;;;;;33.60;29.00;;;;;24.80;21.83;99938.78;7739412;22;96407;-68
2023/02/15 13:24:05;;;;;;;;;31.00;27.80;;;;;24.63;21.65;99938.38;7710273;22;96417;-68
2023/02/15 13:27:16;;;;;;;;;35.40;31.00;;;;;24.40;22.49;99922.56;7737409;22;96817;-68
2023/02/15 13:30:25;;;;;;;;;37.25;30.75;;;;;24.29;22.48;99927.34;7709389;22;96934;-68
2023/02/15 13:33:34;;;;;;;;;32.75;30.50;;;;;24.30;22.64;99936.44;7737495;22;96280;-68
2023/02/15 13:36:47;;;;;;;;;34.00;30.00;;;;;24.09;22.57;99932.97;7736912;22;96188;-68
2023/02/15 13:39:58;;;;;;;;;33.40;29.00;;;;;23.96;22.71;99928.91;7711669;22;98532;-67
2023/02/15 13:43:16;;;;;;;;;34.00;28.00;;;;;23.58;22.85;99921.38;7710469;22;97351;-68
2023/02/15 13:46:39;;;;;;;;;30.00;27.25;;;;;23.11;23.44;99919.88;7739348;22;96285;-68
2023/02/15 13:50:04;;;;;;;;;31.20;28.60;;;;;22.86;24.12;99922.69;7739687;22;96883;-67
2023/02/15 13:53:30;;;;;;;;;36.40;30.40;;;;;22.82;24.23;99925.13;7739403;22;96256;-68
2023/02/15 13:56:46;;;;;;;;;32.50;29.00;;;;;22.57;24.48;99914.16;7685865;22;96967;-67
2023/02/15 14:00:03;;;;;;;;;33.00;30.00;;;;;22.52;24.30;99918.81;7739648;22;96401;-67
2023/02/15 14:03:59;;;;;;;;;37.80;29.80;;;;;22.28;24.49;99916.63;7738585;22;96240;-67
2023/02/15 14:07:16;;;;;;;;;32.40;28.40;;;;;22.04;25.18;99910.78;7742626;22;96246;-67
2023/02/15 14:10:32;;;;;;;;;33.40;30.00;;;;;22.00;25.29;99906.13;7743207;22;96246;-67
2023/02/15 14:14:02;;;;;;;;;30.60;27.80;;;;;21.83;25.63;99897.28;7738155;22;96403;-66
2023/02/15 14:17:15;;;;;;;;;35.50;30.00;;;;;21.64;25.98;99902.44;7739337;22;96201;-67
2023/02/15 14:20:25;;;;;;;;;35.00;30.40;;;;;21.27;26.55;99904.47;7740099;22;96498;-67
2023/02/15 14:23:48;;;;;;;;;35.40;30.00;;;;;21.14;26.96;99898.38;7739055;22;96302;-67
2023/02/15 14:27:02;;;;;;;;;40.80;32.00;;;;;21.08;26.91;99898.56;7738954;22;96214;-67
2023/02/15 14:30:16;;;;;;;;;34.00;30.00;;;;;21.03;27.04;99896.63;7737040;22;96709;-67
2023/02/15 14:33:32;;;;;;;;;28.00;25.80;;;;;20.86;26.80;99896.00;7737978;22;96743;-67
2023/02/15 14:36:39;;;;;;;;;30.80;29.00;;;;;20.75;27.26;99897.84;7737929;22;96959;-67
2023/02/15 14:43:26;;;;;;;;;29.00;26.75;;;;;20.22;28.24;99901.50;7740947;22;96434;-67
2023/02/15 14:46:37;;;;;;;;;31.20;28.00;;;;;20.01;28.17;99888.69;7740895;22;96205;-67
2023/02/15 14:49:41;;;;;;;;;35.60;30.00;;;;;19.68;28.92;99886.16;7741622;22;97417;-67
2023/02/15 14:53:16;;;;;;;;;33.40;29.00;;;;;19.30;29.43;99887.84;7740619;22;97096;-67
2023/02/15 14:56:26;;;;;;;;;37.60;32.00;;;;;18.94;30.22;99878.38;7738565;22;96395;-67